Time;durP1;ratioP1;P1;durP2;ratioP2;P2;SDS_P1;SDS_P2;PMS_P1;PMS_P2;Temp;Humidity;BMP_temperature;BMP_pressure;BME280_temperature;BME280_humidity;BME280_pressure;Samples;Min_cycle;Max_cycle;Signal;HPM_P1;HPM_P2
2024/01/11 00:00:39;;;;;;;30.77;14.27;;;;;;;-7.45;55.47;103487.50;4954746;28;20042;-69
2024/01/11 00:03:05;;;;;;;34.95;14.00;;;;;;;-7.48;55.40;103488.91;4951235;28;20042;-68
2024/01/11 00:05:30;;;;;;;36.83;13.88;;;;;;;-7.59;55.53;103482.09;4965833;28;20117;-68
2024/01/11 00:07:56;;;;;;;35.38;13.38;;;;;;;-7.63;55.53;103486.06;4956178;28;20074;-68
2024/01/11 00:10:22;;;;;;;29.77;12.75;;;;;;;-7.65;55.51;103488.50;4986136;28;20074;-67
2024/01/11 00:12:48;;;;;;;35.00;13.73;;;;;;;-7.58;55.51;103488.94;4956675;28;20034;-71
2024/01/11 00:15:13;;;;;;;32.88;13.45;;;;;;;-7.51;55.79;103475.97;4950275;28;20145;-65
2024/01/11 00:17:39;;;;;;;37.13;13.35;;;;;;;-7.43;55.92;103469.78;4962608;28;20592;-64
2024/01/11 00:20:05;;;;;;;40.75;14.80;;;;;;;-7.31;56.09;103468.19;4953463;28;20049;-66
2024/01/11 00:22:31;;;;;;;35.65;14.15;;;;;;;-7.09;55.98;103474.88;4964809;28;20513;-66
2024/01/11 00:24:57;;;;;;;38.50;14.18;;;;;;;-7.07;55.46;103468.25;4956776;28;20129;-66
2024/01/11 00:27:23;;;;;;;42.33;15.65;;;;;;;-7.18;55.43;103467.44;4954398;28;20544;-68
2024/01/11 00:29:48;;;;;;;33.75;14.95;;;;;;;-7.15;55.70;103461.72;4960063;28;20054;-67
2024/01/11 00:32:14;;;;;;;35.72;14.68;;;;;;;-7.08;55.61;103458.88;4969606;28;20042;-68
2024/01/11 00:34:40;;;;;;;47.03;16.83;;;;;;;-7.10;55.54;103456.19;4966005;28;20065;-70
2024/01/11 00:37:05;;;;;;;37.80;15.85;;;;;;;-6.99;55.55;103444.28;4950514;28;20033;-69
2024/01/11 00:39:31;;;;;;;38.80;15.18;;;;;;;-6.93;55.47;103438.75;4958273;28;20500;-69
2024/01/11 00:41:56;;;;;;;41.78;14.57;;;;;;;-6.92;55.10;103445.63;4961625;28;20493;-69
2024/01/11 00:44:22;;;;;;;34.63;15.95;;;;;;;-6.80;55.24;103433.78;4950944;28;20046;-69
2024/01/11 00:46:47;;;;;;;40.38;15.90;;;;;;;-6.74;55.39;103438.44;4989868;28;20076;-69
2024/01/11 00:49:13;;;;;;;43.45;16.25;;;;;;;-6.71;55.06;103438.66;4947208;28;20430;-69
2024/01/11 00:51:39;;;;;;;38.67;14.60;;;;;;;-6.64;55.06;103433.28;4975777;28;20460;-69
2024/01/11 00:54:04;;;;;;;44.72;15.25;;;;;;;-6.44;55.13;103427.06;4950416;28;20041;-69
2024/01/11 00:56:30;;;;;;;32.10;13.40;;;;;;;-6.35;54.93;103429.34;4960239;28;20074;-69
2024/01/11 00:58:55;;;;;;;40.28;14.35;;;;;;;-6.30;54.77;103426.38;4956933;28;20084;-72
2024/01/11 01:01:21;;;;;;;33.50;14.40;;;;;;;-6.36;54.30;103417.41;4961466;28;21420;-72
2024/01/11 01:03:46;;;;;;;38.80;13.20;;;;;;;-6.39;54.59;103406.25;4953779;28;20038;-71
2024/01/11 01:06:12;;;;;;;40.17;14.52;;;;;;;-6.41;54.86;103402.69;4930873;28;20039;-71
2024/01/11 01:08:37;;;;;;;36.47;15.32;;;;;;;-6.28;54.96;103399.38;4939501;28;20069;-71
2024/01/11 01:11:03;;;;;;;40.08;14.73;;;;;;;-6.18;54.84;103398.34;4945235;28;20329;-72
2024/01/11 01:13:29;;;;;;;39.08;14.50;;;;;;;-6.02;54.96;103408.81;4968472;28;20041;-71
2024/01/11 01:15:55;;;;;;;38.45;13.43;;;;;;;-5.90;54.90;103407.91;4958897;28;20031;-72
2024/01/11 01:18:20;;;;;;;35.92;16.15;;;;;;;-6.03;54.32;103401.94;4952282;28;20525;-71
2024/01/11 01:20:46;;;;;;;41.15;15.05;;;;;;;-6.12;55.05;103406.41;4961421;28;20045;-69
2024/01/11 01:23:11;;;;;;;37.97;15.30;;;;;;;-5.97;55.13;103407.47;4943759;28;20038;-67
2024/01/11 01:25:37;;;;;;;34.55;14.02;;;;;;;-5.80;54.94;103400.09;4954259;28;20046;-68
2024/01/11 01:28:02;;;;;;;38.63;15.32;;;;;;;-5.62;54.88;103400.47;4957406;28;20070;-69
2024/01/11 01:30:28;;;;;;;29.67;13.70;;;;;;;-5.78;54.36;103396.00;4958444;28;20073;-70
2024/01/11 01:32:54;;;;;;;37.40;14.38;;;;;;;-5.67;54.59;103396.72;4957581;28;20069;-69
2024/01/11 01:35:19;;;;;;;40.88;15.38;;;;;;;-5.64;54.37;103397.81;4965810;28;20038;-68
2024/01/11 01:37:45;;;;;;;34.75;13.07;;;;;;;-5.55;54.64;103402.63;4945943;28;20030;-69
2024/01/11 01:40:13;;;;;;;38.78;15.30;;;;;;;-5.38;54.63;103411.41;4935245;28;20065;-70
2024/01/11 01:42:43;;;;;;;37.72;15.55;;;;;;;-5.35;54.24;103411.59;4945298;28;20042;-69
2024/01/11 01:45:09;;;;;;;43.00;15.40;;;;;;;-5.43;54.58;103408.56;4942591;28;20038;-69
2024/01/11 01:47:34;;;;;;;39.72;17.10;;;;;;;-5.37;54.62;103411.53;4936444;28;20039;-69
2024/01/11 01:50:00;;;;;;;42.85;15.25;;;;;;;-5.52;54.36;103407.06;4952282;28;20552;-70
2024/01/11 01:52:26;;;;;;;34.30;15.13;;;;;;;-5.39;54.84;103404.56;4924990;28;20468;-68
2024/01/11 01:54:52;;;;;;;36.05;14.48;;;;;;;-5.31;54.63;103411.03;4931864;28;20072;-65
2024/01/11 01:57:19;;;;;;;38.53;14.65;;;;;;;-5.20;54.64;103409.19;4954532;28;20049;-66
2024/01/11 01:59:49;;;;;;;38.70;14.57;;;;;;;-5.28;54.83;103410.34;4920155;28;20151;-65
2024/01/11 02:02:15;;;;;;;31.73;15.65;;;;;;;-5.25;54.84;103408.91;4953957;28;20516;-66
2024/01/11 02:04:41;;;;;;;38.25;15.35;;;;;;;-5.20;54.58;103407.53;4985068;28;20053;-67
2024/01/11 02:07:07;;;;;;;35.30;16.85;;;;;;;-5.11;55.06;103422.56;4957505;28;20031;-67
2024/01/11 02:09:33;;;;;;;36.78;14.70;;;;;;;-5.04;54.73;103413.63;4976130;28;20047;-67
2024/01/11 02:12:00;;;;;;;40.30;15.10;;;;;;;-4.95;54.78;103414.22;4972813;28;20524;-65
2024/01/11 02:14:26;;;;;;;39.08;15.00;;;;;;;-4.92;54.31;103419.56;4950833;28;20053;-67
2024/01/11 02:16:51;;;;;;;40.55;17.23;;;;;;;-5.11;55.07;103419.13;4953235;28;20031;-67
2024/01/11 02:19:19;;;;;;;37.50;15.48;;;;;;;-4.97;54.91;103426.91;4949234;28;20050;-67
2024/01/11 02:21:46;;;;;;;39.97;14.60;;;;;;;-4.92;54.84;103422.09;4955285;28;20859;-67
2024/01/11 02:24:13;;;;;;;43.00;16.15;;;;;;;-4.74;54.94;103405.41;4953536;28;20054;-65
2024/01/11 02:26:58;;;;;;;44.60;15.57;;;;;;;-5.35;56.09;103402.31;4953947;28;20404;-65
2024/01/11 02:29:24;;;;;;;47.75;15.48;;;;;;;-5.07;55.59;103403.25;4949576;28;20207;-64
2024/01/11 02:31:49;;;;;;;36.97;15.20;;;;;;;-4.93;55.63;103394.81;4957476;28;20046;-71
2024/01/11 02:34:15;;;;;;;37.88;14.82;;;;;;;-4.89;55.46;103383.16;4951188;28;20042;-67
2024/01/11 02:36:41;;;;;;;32.55;12.13;;;;;;;-4.75;55.35;103383.22;4986853;28;20029;-67
2024/01/11 02:39:07;;;;;;;35.80;15.43;;;;;;;-4.91;55.35;103380.50;4954624;28;20057;-67
2024/01/11 02:41:34;;;;;;;44.30;14.93;;;;;;;-4.84;55.44;103384.31;4953248;28;21192;-68
2024/01/11 02:44:00;;;;;;;41.17;15.60;;;;;;;-4.82;55.29;103406.59;4961042;28;20025;-67
2024/01/11 02:46:26;;;;;;;39.08;14.77;;;;;;;-4.85;55.56;103421.72;4952283;28;20219;-67
2024/01/11 02:48:52;;;;;;;37.08;15.05;;;;;;;-4.86;55.54;103414.81;4990108;28;20144;-70
2024/01/11 02:51:17;;;;;;;41.13;15.82;;;;;;;-4.65;55.73;103419.56;4969954;28;20266;-67
2024/01/11 02:53:43;;;;;;;36.72;13.40;;;;;;;-4.70;55.36;103414.16;4959012;28;20038;-67
2024/01/11 02:56:08;;;;;;;32.97;12.80;;;;;;;-4.61;55.51;103411.28;4965990;28;20398;-68
2024/01/11 02:58:34;;;;;;;37.35;14.20;;;;;;;-4.69;55.36;103407.38;4952558;28;20286;-67
2024/01/11 03:00:59;;;;;;;38.28;14.43;;;;;;;-4.78;55.39;103402.59;4959501;28;20041;-67
2024/01/11 03:03:25;;;;;;;40.97;15.85;;;;;;;-4.68;55.51;103402.38;4960174;28;20046;-68
2024/01/11 03:05:50;;;;;;;42.13;16.33;;;;;;;-4.71;55.97;103400.50;4961629;28;20050;-71
2024/01/11 03:08:16;;;;;;;38.33;14.25;;;;;;;-4.61;55.40;103401.09;4974688;28;20041;-72
2024/01/11 03:10:42;;;;;;;43.03;14.93;;;;;;;-4.45;55.86;103402.97;4963752;28;20049;-71
2024/01/11 03:13:07;;;;;;;39.38;15.45;;;;;;;-4.34;55.71;103399.41;4961596;28;20034;-72
2024/01/11 03:15:33;;;;;;;37.15;14.77;;;;;;;-4.44;55.18;103390.28;4954577;28;20478;-71
2024/01/11 03:17:58;;;;;;;43.42;15.55;;;;;;;-4.42;55.11;103388.69;4974814;28;20137;-71
2024/01/11 03:20:24;;;;;;;38.10;15.90;;;;;;;-4.39;55.31;103385.44;4966334;28;20035;-72
2024/01/11 03:22:51;;;;;;;34.53;15.65;;;;;;;-4.47;55.22;103385.00;4952046;28;20053;-72
2024/01/11 03:25:17;;;;;;;37.22;16.42;;;;;;;-4.53;55.30;103379.50;4959796;28;20050;-71
2024/01/11 03:27:42;;;;;;;41.17;15.20;;;;;;;-4.59;55.72;103372.34;4956850;28;20427;-72
2024/01/11 03:30:08;;;;;;;45.85;14.55;;;;;;;-4.32;55.40;103378.28;4946023;28;20722;-71
2024/01/11 03:32:34;;;;;;;43.10;15.50;;;;;;;-4.55;55.48;103379.38;4959152;28;20078;-72
2024/01/11 03:34:59;;;;;;;41.55;16.00;;;;;;;-4.48;55.53;103367.00;4958340;28;20031;-71
2024/01/11 03:37:24;;;;;;;45.95;15.98;;;;;;;-4.39;55.42;103370.13;4968088;28;20803;-73
2024/01/11 03:39:50;;;;;;;35.13;14.57;;;;;;;-4.38;55.25;103375.34;4954149;28;20477;-70
2024/01/11 03:42:15;;;;;;;38.85;16.88;;;;;;;-4.39;55.71;103382.91;4964105;28;20066;-71
2024/01/11 03:44:41;;;;;;;39.45;17.85;;;;;;;-4.40;55.45;103371.81;4953290;28;20703;-71
2024/01/11 03:47:07;;;;;;;33.50;14.05;;;;;;;-4.32;55.40;103370.63;4959836;28;20065;-69
2024/01/11 03:49:32;;;;;;;33.65;14.63;;;;;;;-4.37;55.15;103392.41;4951418;28;20360;-69
2024/01/11 03:51:57;;;;;;;35.85;15.65;;;;;;;-4.26;55.82;103397.31;4954971;28;20041;-69
2024/01/11 03:54:24;;;;;;;38.75;14.13;;;;;;;-4.31;55.57;103408.13;4965357;28;20129;-69
2024/01/11 03:56:49;;;;;;;35.90;14.50;;;;;;;-4.21;55.50;103407.03;4960548;28;20085;-62
2024/01/11 03:59:14;;;;;;;44.45;17.27;;;;;;;-4.09;55.70;103407.78;4957232;28;20923;-62
2024/01/11 04:01:41;;;;;;;38.50;15.80;;;;;;;-4.04;55.26;103417.41;4964139;28;20060;-66
2024/01/11 04:04:06;;;;;;;38.80;15.40;;;;;;;-3.96;55.40;103409.41;4954152;28;20687;-65
2024/01/11 04:06:32;;;;;;;37.30;14.45;;;;;;;-3.89;55.37;103406.44;4959579;28;20031;-73
2024/01/11 04:08:57;;;;;;;43.53;15.70;;;;;;;-3.85;55.17;103404.06;4956523;28;20038;-68
2024/01/11 04:11:23;;;;;;;44.00;17.23;;;;;;;-3.77;54.86;103395.19;4959519;28;20425;-66
2024/01/11 04:13:49;;;;;;;34.65;12.93;;;;;;;-3.71;55.17;103403.22;4964909;28;20492;-65
2024/01/11 04:16:14;;;;;;;34.83;13.63;;;;;;;-3.67;55.20;103410.31;4976790;28;20030;-66
2024/01/11 04:18:39;;;;;;;36.80;13.55;;;;;;;-3.63;54.87;103407.16;4951092;28;20430;-66
2024/01/11 04:21:05;;;;;;;37.53;14.07;;;;;;;-3.59;54.99;103415.84;4956731;28;20050;-66
2024/01/11 04:23:30;;;;;;;33.17;13.57;;;;;;;-3.55;55.25;103410.13;4952423;28;20034;-65
2024/01/11 04:25:56;;;;;;;32.97;12.82;;;;;;;-3.49;55.08;103421.63;4955782;28;20149;-68
2024/01/11 04:28:21;;;;;;;35.75;14.77;;;;;;;-3.48;55.19;103418.25;4954374;28;20916;-67
2024/01/11 04:30:47;;;;;;;39.70;14.88;;;;;;;-3.48;55.49;103417.38;4950834;28;21219;-67
2024/01/11 04:33:12;;;;;;;33.80;12.52;;;;;;;-3.36;55.29;103419.75;4957919;28;20072;-67
2024/01/11 04:35:38;;;;;;;34.08;13.63;;;;;;;-3.34;55.10;103425.84;4968457;28;20383;-64
2024/01/11 04:38:03;;;;;;;43.83;14.48;;;;;;;-3.34;55.05;103415.63;4953745;28;20540;-67
2024/01/11 04:40:29;;;;;;;29.05;12.80;;;;;;;-3.33;55.08;103409.72;4948839;28;20051;-67
2024/01/11 04:42:55;;;;;;;32.63;12.48;;;;;;;-3.31;55.07;103405.59;4956389;28;20387;-67
2024/01/11 04:45:20;;;;;;;30.08;11.60;;;;;;;-3.30;55.20;103410.78;4954671;28;20055;-68
2024/01/11 04:47:45;;;;;;;33.67;12.80;;;;;;;-3.26;55.32;103411.84;4962286;28;20479;-67
2024/01/11 04:50:11;;;;;;;33.85;12.50;;;;;;;-3.20;55.26;103407.09;4943497;28;20413;-69
2024/01/11 04:52:36;;;;;;;31.08;11.93;;;;;;;-3.20;55.33;103409.66;4943426;28;20069;-67
2024/01/11 04:55:02;;;;;;;29.60;12.43;;;;;;;-3.18;55.24;103408.06;4930324;28;20104;-67
2024/01/11 04:57:28;;;;;;;33.13;12.43;;;;;;;-3.15;55.59;103408.22;4946272;28;20121;-67
2024/01/11 04:59:53;;;;;;;27.73;11.95;;;;;;;-3.11;55.38;103394.81;4933568;28;20062;-66
2024/01/11 05:02:22;;;;;;;29.20;11.98;;;;;;;-3.12;55.28;103397.28;4946801;28;20037;-68
2024/01/11 05:04:48;;;;;;;30.55;13.52;;;;;;;-3.14;55.15;103387.00;4949772;28;20182;-67
2024/01/11 05:07:13;;;;;;;24.38;11.55;;;;;;;-3.10;55.59;103398.25;4957612;28;20869;-68
2024/01/11 05:09:39;;;;;;;31.25;12.10;;;;;;;-3.19;55.21;103377.25;4950582;28;20074;-70
2024/01/11 05:12:05;;;;;;;30.52;12.52;;;;;;;-3.23;55.85;103383.88;4960320;28;20034;-68
2024/01/11 05:14:31;;;;;;;30.73;13.00;;;;;;;-3.36;55.94;103377.19;4946912;28;20046;-64
2024/01/11 05:16:56;;;;;;;34.40;13.85;;;;;;;-3.35;56.00;103373.81;4951067;28;20046;-65
2024/01/11 05:19:22;;;;;;;31.65;13.95;;;;;;;-3.38;56.15;103362.56;4948392;28;20137;-68
2024/01/11 05:21:47;;;;;;;31.95;11.60;;;;;;;-3.39;56.00;103371.88;4955956;28;20030;-68
2024/01/11 05:24:13;;;;;;;30.42;12.70;;;;;;;-3.59;56.94;103346.81;4958487;28;20038;-70
2024/01/11 05:26:38;;;;;;;35.83;14.07;;;;;;;-3.39;56.79;103348.00;4953747;28;20209;-71
2024/01/11 05:29:06;;;;;;;35.95;15.10;;;;;;;-3.38;56.94;103344.66;4959491;28;20034;-73
2024/01/11 05:31:32;;;;;;;35.08;14.02;;;;;;;-3.36;56.69;103335.38;4961293;28;20101;-71
2024/01/11 05:33:57;;;;;;;35.08;14.45;;;;;;;-3.55;57.21;103334.31;4970499;28;20038;-72
2024/01/11 05:36:23;;;;;;;34.20;13.68;;;;;;;-3.73;57.78;103312.81;4973888;28;20659;-68
2024/01/11 05:38:49;;;;;;;35.17;14.05;;;;;;;-3.44;57.05;103326.41;4951825;28;20034;-68
2024/01/11 05:41:15;;;;;;;30.17;12.10;;;;;;;-3.75;57.58;103334.84;4981327;28;20751;-68
2024/01/11 05:43:40;;;;;;;32.35;13.25;;;;;;;-3.44;57.31;103334.06;4967003;28;20041;-70
2024/01/11 05:46:06;;;;;;;35.88;14.25;;;;;;;-3.51;57.42;103331.16;4958691;28;20663;-69
2024/01/11 05:48:32;;;;;;;36.08;13.07;;;;;;;-3.49;57.40;103336.34;4956314;28;20050;-71
2024/01/11 05:50:58;;;;;;;34.83;14.82;;;;;;;-3.60;57.79;103330.63;4966399;28;20058;-71
2024/01/11 05:53:24;;;;;;;33.97;12.57;;;;;;;-3.38;57.65;103345.53;4962456;28;20042;-71
2024/01/11 05:55:50;;;;;;;32.33;13.20;;;;;;;-3.32;57.32;103338.22;4966877;28;20041;-72
2024/01/11 05:58:15;;;;;;;38.85;15.05;;;;;;;-3.38;57.57;103331.88;4959228;28;20125;-70
2024/01/11 06:00:41;;;;;;;35.95;14.60;;;;;;;-3.26;57.34;103328.31;4951690;28;20764;-72
2024/01/11 06:03:07;;;;;;;33.40;13.90;;;;;;;-3.11;57.40;103333.41;4924954;28;20045;-71
2024/01/11 06:05:33;;;;;;;35.45;14.25;;;;;;;-3.10;57.39;103335.16;4941057;28;20043;-71
2024/01/11 06:07:59;;;;;;;30.95;12.35;;;;;;;-2.97;57.40;103338.44;4911525;28;20670;-73
2024/01/11 06:10:24;;;;;;;33.20;14.10;;;;;;;-2.96;57.39;103348.75;4909635;28;20322;-70
2024/01/11 06:12:50;;;;;;;26.88;11.25;;;;;;;-2.97;57.13;103341.88;4920595;28;20187;-69
2024/01/11 06:15:16;;;;;;;29.25;12.00;;;;;;;-2.91;57.23;103352.44;4950412;28;20046;-71
2024/01/11 06:17:42;;;;;;;32.58;12.65;;;;;;;-2.82;57.35;103346.97;4958216;28;20038;-72
2024/01/11 06:20:09;;;;;;;28.65;11.38;;;;;;;-2.73;57.34;103344.91;4991291;28;20509;-72
2024/01/11 06:22:35;;;;;;;31.38;11.40;;;;;;;-2.69;56.88;103343.41;4961048;28;20498;-71
2024/01/11 06:25:00;;;;;;;25.85;10.70;;;;;;;-2.84;57.01;103346.00;4958007;28;20050;-71
2024/01/11 06:27:26;;;;;;;25.05;10.75;;;;;;;-2.83;57.06;103334.94;4962766;28;20053;-71
2024/01/11 06:29:51;;;;;;;29.33;11.43;;;;;;;-2.74;57.21;103324.31;4972687;28;20296;-72
2024/01/11 06:32:17;;;;;;;26.27;10.52;;;;;;;-2.74;57.29;103327.75;4963723;28;20045;-71
2024/01/11 06:34:45;;;;;;;25.50;11.10;;;;;;;-2.76;57.48;103329.38;4968392;28;20042;-69
2024/01/11 06:37:12;;;;;;;29.38;10.55;;;;;;;-2.80;57.77;103319.78;4960070;28;20046;-72
2024/01/11 06:39:37;;;;;;;23.50;9.57;;;;;;;-2.73;57.41;103315.88;4959279;28;20042;-71
2024/01/11 06:42:03;;;;;;;20.30;10.27;;;;;;;-2.75;57.66;103315.78;4945122;28;20688;-68
2024/01/11 06:44:29;;;;;;;22.98;10.02;;;;;;;-2.72;57.44;103310.81;4959997;28;20513;-71
2024/01/11 06:46:54;;;;;;;28.75;10.55;;;;;;;-2.71;57.87;103315.16;4952684;28;20065;-71
2024/01/11 06:49:20;;;;;;;25.13;9.25;;;;;;;-2.64;57.70;103311.25;4959512;28;20053;-69
2024/01/11 06:51:45;;;;;;;25.73;10.93;;;;;;;-2.74;57.75;103311.53;4956043;28;20057;-73
2024/01/11 06:54:11;;;;;;;21.08;9.38;;;;;;;-3.00;58.52;103318.69;4960860;28;20571;-73
2024/01/11 06:56:36;;;;;;;26.38;10.68;;;;;;;-2.91;58.56;103319.19;4958721;28;20575;-67
2024/01/11 06:59:01;;;;;;;24.10;10.70;;;;;;;-2.80;58.20;103319.78;4951526;28;20477;-67
2024/01/11 07:01:27;;;;;;;27.80;10.38;;;;;;;-2.69;57.82;103321.25;4960200;28;20030;-67
2024/01/11 07:03:52;;;;;;;29.65;11.15;;;;;;;-2.66;57.86;103310.28;4953343;28;20117;-65
2024/01/11 07:06:18;;;;;;;24.65;10.63;;;;;;;-2.66;58.05;103308.59;4959579;28;20641;-65
2024/01/11 07:08:44;;;;;;;24.50;11.80;;;;;;;-2.87;58.21;103307.41;4956944;28;20065;-66
2024/01/11 07:11:09;;;;;;;26.45;11.60;;;;;;;-2.86;58.54;103307.50;4955411;28;20050;-66
2024/01/11 07:13:35;;;;;;;24.90;11.77;;;;;;;-2.79;58.65;103303.59;4965406;28;20031;-65
2024/01/11 07:16:02;;;;;;;30.30;10.88;;;;;;;-2.70;58.29;103306.66;4953597;28;20035;-64
2024/01/11 07:18:28;;;;;;;24.08;10.13;;;;;;;-2.63;58.24;103300.19;4959697;28;20061;-66
2024/01/11 07:20:56;;;;;;;25.58;9.50;;;;;;;-2.53;58.04;103302.47;4952239;28;21055;-65
2024/01/11 07:23:22;;;;;;;26.33;10.27;;;;;;;-2.50;58.33;103304.28;4932964;28;20111;-66
2024/01/11 07:25:47;;;;;;;22.25;9.98;;;;;;;-2.42;57.92;103306.47;4917099;28;20038;-71
2024/01/11 07:28:13;;;;;;;28.55;11.23;;;;;;;-2.42;58.32;103303.03;4931261;28;20035;-70
2024/01/11 07:30:39;;;;;;;18.88;9.27;;;;;;;-2.29;58.06;103315.69;4927558;28;20050;-69
2024/01/11 07:33:05;;;;;;;24.50;10.15;;;;;;;-2.52;58.58;103321.25;4934543;28;20042;-71
2024/01/11 07:35:31;;;;;;;21.98;9.18;;;;;;;-2.35;58.60;103325.59;4974012;28;20707;-71
2024/01/11 07:37:57;;;;;;;19.00;8.43;;;;;;;-2.73;58.90;103321.88;4972423;28;20287;-71
2024/01/11 07:40:23;;;;;;;19.63;8.73;;;;;;;-2.54;59.11;103313.47;4949912;28;20046;-70
2024/01/11 07:42:49;;;;;;;15.10;7.30;;;;;;;-2.35;58.77;103324.72;4961563;28;20069;-70
2024/01/11 07:45:15;;;;;;;19.67;8.23;;;;;;;-2.26;58.60;103314.97;4960823;28;20047;-70
2024/01/11 07:47:40;;;;;;;20.98;8.45;;;;;;;-2.12;58.38;103331.06;4959500;28;20166;-70
2024/01/11 07:50:07;;;;;;;16.48;7.72;;;;;;;-2.14;58.45;103325.84;4952472;28;20069;-71
2024/01/11 07:52:36;;;;;;;18.45;8.05;;;;;;;-2.10;58.26;103320.06;4959548;28;20596;-71
2024/01/11 07:55:08;;;;;;;26.75;8.85;;;;;;;-2.10;57.96;103327.75;4951913;28;20064;-70
2024/01/11 07:57:37;;;;;;;22.95;9.05;;;;;;;-2.13;58.37;103327.63;4972602;28;20060;-70
2024/01/11 08:00:06;;;;;;;19.90;8.57;;;;;;;-2.22;58.63;103324.56;4958821;28;20101;-70
2024/01/11 08:02:38;;;;;;;24.50;9.63;;;;;;;-2.10;58.52;103327.75;4960665;28;20043;-70
2024/01/11 08:05:05;;;;;;;24.80;9.40;;;;;;;-2.02;58.55;103331.59;4951705;28;20521;-67
2024/01/11 08:07:30;;;;;;;23.13;8.95;;;;;;;-2.05;58.18;103331.44;4969504;28;20092;-72
2024/01/11 08:09:56;;;;;;;17.33;7.93;;;;;;;-2.06;58.74;103332.25;4967014;28;20429;-64
2024/01/11 08:12:22;;;;;;;22.35;9.35;;;;;;;-1.99;58.67;103330.88;4958493;28;20524;-65
2024/01/11 08:14:48;;;;;;;21.88;9.30;;;;;;;-2.01;58.41;103324.78;4959469;28;20129;-65
2024/01/11 08:17:14;;;;;;;23.98;7.93;;;;;;;-1.91;58.40;103313.31;4952785;28;20043;-65
2024/01/11 08:19:42;;;;;;;19.90;8.10;;;;;;;-2.03;58.66;103318.72;4957519;28;20041;-66
2024/01/11 08:22:08;;;;;;;24.85;9.18;;;;;;;-1.97;58.74;103324.16;4984259;28;20044;-64
2024/01/11 08:24:35;;;;;;;18.42;7.10;;;;;;;-1.77;58.50;103314.03;4956710;28;20046;-66
2024/01/11 08:27:01;;;;;;;23.52;9.82;;;;;;;-2.11;59.03;103317.41;4948541;28;20026;-65
2024/01/11 08:29:27;;;;;;;21.40;9.15;;;;;;;-1.83;58.79;103328.28;4925923;28;20874;-65
2024/01/11 08:31:54;;;;;;;24.42;9.95;;;;;;;-1.69;58.48;103331.56;4936636;28;20589;-66
2024/01/11 08:34:21;;;;;;;21.48;8.82;;;;;;;-1.84;58.92;103323.97;4911271;28;20675;-65
2024/01/11 08:36:47;;;;;;;18.52;8.00;;;;;;;-1.86;59.16;103310.19;4929815;28;20031;-66
2024/01/11 08:39:14;;;;;;;25.63;9.00;;;;;;;-1.80;58.81;103314.75;4913711;28;20146;-66
2024/01/11 08:41:39;;;;;;;23.15;9.32;;;;;;;-1.59;58.59;103309.81;4956683;28;20023;-67
2024/01/11 08:44:07;;;;;;;24.35;10.02;;;;;;;-1.42;58.34;103320.91;4951267;28;20083;-68
2024/01/11 08:46:33;;;;;;;20.33;8.57;;;;;;;-1.55;58.49;103323.66;4955037;28;20045;-68
2024/01/11 08:49:01;;;;;;;16.58;8.15;;;;;;;-1.72;58.64;103333.09;4966845;28;20039;-67
2024/01/11 08:51:27;;;;;;;21.38;8.93;;;;;;;-1.62;58.81;103338.78;4958528;28;20498;-67
2024/01/11 08:53:55;;;;;;;16.52;6.32;;;;;;;-1.70;58.54;103344.31;4957334;28;20057;-66
2024/01/11 08:56:22;;;;;;;16.95;8.10;;;;;;;-1.38;58.31;103351.91;4970426;28;20445;-67
2024/01/11 08:58:48;;;;;;;18.33;7.97;;;;;;;-1.27;58.07;103346.44;4955290;28;20069;-67
2024/01/11 09:01:14;;;;;;;20.20;7.70;;;;;;;-1.29;58.17;103348.06;4936809;28;20046;-65
2024/01/11 09:03:40;;;;;;;24.20;8.18;;;;;;;-1.32;57.78;103353.91;4951430;28;20038;-65
2024/01/11 09:06:06;;;;;;;17.50;7.13;;;;;;;-1.22;58.08;103360.38;4948468;28;20131;-68
2024/01/11 09:08:32;;;;;;;20.23;9.07;;;;;;;-1.31;57.98;103357.34;4956805;28;20151;-66
2024/01/11 09:11:00;;;;;;;23.45;8.73;;;;;;;-1.19;57.96;103348.56;4986910;28;20042;-65
2024/01/11 09:13:28;;;;;;;13.82;6.78;;;;;;;-1.09;57.71;103351.59;4957644;28;20124;-65
2024/01/11 09:15:55;;;;;;;17.75;7.38;;;;;;;-1.44;57.97;103349.06;4969280;28;20062;-66
2024/01/11 09:18:21;;;;;;;16.92;7.43;;;;;;;-1.24;58.14;103350.06;4980607;28;20970;-65
2024/01/11 09:20:47;;;;;;;18.60;8.00;;;;;;;-1.20;58.12;103358.75;4954682;28;20529;-68
2024/01/11 09:23:13;;;;;;;19.65;7.32;;;;;;;-1.18;58.07;103360.59;4949437;28;20058;-68
2024/01/11 09:25:39;;;;;;;21.25;9.60;;;;;;;-1.04;57.83;103358.75;4983099;28;20608;-68
2024/01/11 09:28:05;;;;;;;19.25;8.88;;;;;;;-1.02;58.25;103354.56;4949302;28;20046;-67
2024/01/11 09:30:31;;;;;;;17.77;7.32;;;;;;;-0.99;58.08;103354.72;4953047;28;20070;-67
2024/01/11 09:32:57;;;;;;;29.90;11.48;;;;;;;-0.91;57.66;103352.50;4987572;28;20503;-66
2024/01/11 09:35:23;;;;;;;22.48;10.60;;;;;;;-0.82;57.96;103360.63;4948852;28;20745;-66
2024/01/11 09:37:49;;;;;;;25.63;11.23;;;;;;;-0.94;57.73;103346.34;4956345;28;20035;-67
2024/01/11 09:40:14;;;;;;;21.95;10.07;;;;;;;-1.02;58.02;103351.09;4950018;28;20047;-67
2024/01/11 09:42:40;;;;;;;17.48;7.78;;;;;;;-0.99;58.09;103338.44;4956787;28;20042;-67
2024/01/11 09:45:16;;;;;;;18.92;8.52;;;;;;;-1.11;58.27;103335.22;4953706;28;20816;-68
2024/01/11 09:47:44;;;;;;;17.48;7.18;;;;;;;-1.03;58.67;103334.81;4947431;28;20076;-67
2024/01/11 09:50:10;;;;;;;17.48;7.70;;;;;;;-0.98;58.56;103338.47;4907705;28;20140;-67
2024/01/11 09:52:39;;;;;;;15.27;7.28;;;;;;;-1.09;58.73;103337.06;4928848;28;20568;-66
2024/01/11 09:55:05;;;;;;;18.92;7.95;;;;;;;-0.85;58.30;103346.78;4918711;28;20147;-66
2024/01/11 09:57:34;;;;;;;20.75;7.25;;;;;;;-0.93;58.89;103341.25;4920352;28;20213;-66
2024/01/11 10:00:03;;;;;;;17.92;7.82;;;;;;;-1.28;58.89;103337.00;4946329;28;20490;-66
2024/01/11 10:02:31;;;;;;;18.73;8.15;;;;;;;-1.13;58.86;103322.31;4954140;28;20086;-67
2024/01/11 10:04:56;;;;;;;17.67;7.47;;;;;;;-1.06;58.46;103327.00;4956194;28;20399;-68
2024/01/11 10:07:24;;;;;;;20.58;7.15;;;;;;;-1.08;58.64;103327.69;4949924;28;20039;-65
2024/01/11 10:09:50;;;;;;;16.77;6.63;;;;;;;-0.95;58.37;103318.91;4986368;28;20061;-66
2024/01/11 10:12:23;;;;;;;15.43;8.15;;;;;;;-0.86;58.13;103314.19;4943938;28;20620;-67
2024/01/11 10:14:48;;;;;;;19.10;7.88;;;;;;;-0.94;58.12;103325.81;4955401;28;21530;-65
2024/01/11 10:17:14;;;;;;;23.75;9.10;;;;;;;-0.73;57.54;103331.06;4949004;28;20033;-66
2024/01/11 10:19:40;;;;;;;18.77;7.32;;;;;;;-0.60;57.74;103329.13;4959802;28;20061;-66
2024/01/11 10:22:06;;;;;;;20.40;9.30;;;;;;;-0.97;58.09;103322.28;4958738;28;20040;-66
2024/01/11 10:24:32;;;;;;;18.67;7.50;;;;;;;-0.69;57.98;103318.44;4956210;28;20742;-67
2024/01/11 10:26:59;;;;;;;19.75;7.90;;;;;;;-0.70;57.69;103319.25;4977496;28;20042;-64
2024/01/11 10:29:33;;;;;;;19.52;7.20;;;;;;;-0.48;57.27;103321.13;4982777;28;20077;-66
2024/01/11 10:31:58;;;;;;;20.08;7.25;;;;;;;-0.50;57.09;103319.25;4963634;28;20547;-65
2024/01/11 10:34:24;;;;;;;19.58;8.38;;;;;;;-0.73;58.08;103321.66;4953975;28;20035;-65
2024/01/11 10:36:52;;;;;;;17.88;7.85;;;;;;;-0.65;57.47;103319.47;4958744;28;20125;-67
2024/01/11 10:39:19;;;;;;;22.52;9.52;;;;;;;-0.46;57.68;103316.94;4983023;28;20663;-66
2024/01/11 10:41:51;;;;;;;19.40;8.50;;;;;;;-0.48;57.21;103308.28;4974938;28;20560;-66
2024/01/11 10:44:24;;;;;;;16.55;6.80;;;;;;;-0.33;57.35;103309.75;4953246;28;20038;-66
2024/01/11 10:46:50;;;;;;;17.17;7.82;;;;;;;-0.27;57.29;103305.75;4976849;28;20035;-66
2024/01/11 10:49:18;;;;;;;18.45;8.18;;;;;;;-0.19;56.69;103301.84;4951570;28;20042;-66
2024/01/11 10:51:49;;;;;;;20.20;7.82;;;;;;;-0.60;56.93;103293.16;4977075;28;20068;-67
2024/01/11 10:54:15;;;;;;;15.32;7.53;;;;;;;-0.29;57.31;103279.13;4951515;28;20062;-67
2024/01/11 10:56:43;;;;;;;17.92;7.75;;;;;;;-0.74;57.69;103283.97;4974504;28;20037;-67
2024/01/11 10:59:11;;;;;;;18.10;7.95;;;;;;;-0.57;57.64;103285.59;4958579;28;20129;-67
2024/01/11 11:01:39;;;;;;;20.65;7.47;;;;;;;-0.90;58.61;103286.63;4955477;28;20153;-67
2024/01/11 11:04:07;;;;;;;16.95;7.80;;;;;;;-0.98;58.28;103284.56;4935083;28;20788;-66
2024/01/11 11:06:35;;;;;;;19.60;7.90;;;;;;;-0.83;58.20;103274.13;4910295;28;21386;-66